Impacts TAF Board INFO
FOR SITUATIONAL AWARENESS. NOT TO BE USED FOR FLIGHT PLANNING PURPOSES.
IDs:

KDEN - Denver Intl, CO, US

Issued at 2254 UTC 21 Feb 2018
Updated at 2306 UTC 21 Feb 2018
Potential Impact None Slight Moderate High
Time2253Z 22/00Z 22/01Z 22/02Z 22/03Z 22/04Z 22/05Z 22/06Z 22/07Z 22/08Z 22/09Z 22/10Z 22/11Z 22/12Z>>
Type OBS PRVL PRVL PRVL PRVL PRVL PRVL PRVL PRVL PRVL PRVL PRVL PRVL PRVL
VIS 6 >6 >6 >6 >6 >6 >6 >6 >6 >6 >6 >6 >6 >6
CIG -- -- -- -- -- -- -- 50 50 50 50 50 10 10
Cover FEW SCT SCT SCT SCT SCT SCT BKN BKN BKN BKN BKN OVC OVC
FltCat VFR VFR VFR VFR VFR VFR VFR VFR VFR VFR VFR VFR MVFR MVFR
WX HZ -- -- -- -- -- -- -- -- -- -- -- VCFG VCFG
WDir 350 340 VRB VRB VRB VRB VRB 210 210 210 210 210 340 340
WSpd 10 8 4 4 4 4 4 6 6 6 6 6 6 6
WGst -- -- -- -- -- -- -- -- -- -- -- -- -- --

Raw TAF
KDEN 212254Z 2123/2224 34008KT P6SM FEW120 SCT200
  FM220100 VRB04KT P6SM FEW040 SCT080
  FM220600 21006KT P6SM SCT030 BKN050
  FM221100 34006KT P6SM VCFG BKN010 OVC030
  FM221600 VRB05KT P6SM VCSH OVC015


Raw METAR
KDEN 212253Z 35010KT 6SM HZ FEW120 M07/M11 A3008 RMK AO2 SLP264 T10721111
KDEN 212153Z 36010KT 7SM FEW120 FEW200 M07/M11 A3008 RMK AO2 SLP256 T10671106
KDEN 212053Z 36008KT 7SM FEW110 FEW200 M06/M10 A3010 RMK AO2 SLP256 T10611100 56022

METAR Board
Radar Display
Forecast Discussion

FOR SITUATIONAL AWARENESS. NOT TO BE USED FOR FLIGHT PLANNING PURPOSES.